createdAt,value
2022-08-20T00:00:03.749Z,40.12
2022-08-20T00:01:03.740Z,39.16
2022-08-20T00:02:03.750Z,37.06
2022-08-20T00:03:03.720Z,35.93
2022-08-20T00:04:03.706Z,37.06
2022-08-20T00:05:03.697Z,36.90
2022-08-20T00:06:03.687Z,36.74
2022-08-20T00:07:03.694Z,38.03
2022-08-20T00:08:03.665Z,38.83
2022-08-20T00:09:03.655Z,38.83
2022-08-20T00:10:03.640Z,39.16
2022-08-20T00:11:03.639Z,38.51
2022-08-20T00:12:03.633Z,37.87
2022-08-20T00:13:03.616Z,38.51
2022-08-20T00:14:03.602Z,37.71
2022-08-20T00:15:03.598Z,39.80
2022-08-20T00:16:03.584Z,41.09
2022-08-20T00:17:03.578Z,39.96
2022-08-20T00:18:03.564Z,39.48
2022-08-20T00:19:03.552Z,38.51
2022-08-20T00:20:03.539Z,38.99
2022-08-20T00:21:03.537Z,37.06
2022-08-20T00:22:03.540Z,39.48
2022-08-20T00:23:06.250Z,36.58
2022-08-20T00:24:04.514Z,39.64
2022-08-20T00:25:03.484Z,38.03
2022-08-20T00:26:03.477Z,36.42
2022-08-20T00:27:03.477Z,37.38
2022-08-20T00:28:03.458Z,36.74
2022-08-20T00:29:03.444Z,35.45
2022-08-20T00:30:03.437Z,35.77
2022-08-20T00:31:03.428Z,37.54
2022-08-20T00:32:03.432Z,36.42
2022-08-20T00:33:03.407Z,38.19
2022-08-20T00:34:03.396Z,35.77
2022-08-20T00:35:03.388Z,36.90
2022-08-20T00:36:03.373Z,39.48
2022-08-20T00:37:03.377Z,35.45
2022-08-20T00:38:03.446Z,37.38
2022-08-20T00:39:03.344Z,37.87
2022-08-20T00:40:03.420Z,36.90
2022-08-20T00:43:32.552Z,35.29
2022-08-20T00:44:32.588Z,36.74
2022-08-20T00:45:32.614Z,38.03
2022-08-20T00:46:32.264Z,39.16
2022-08-20T00:47:32.687Z,38.35
2022-08-20T00:48:32.725Z,36.09
2022-08-20T00:49:32.753Z,38.35
2022-08-20T00:50:32.793Z,34.80
2022-08-20T00:51:32.328Z,37.87
2022-08-20T00:52:23.308Z,36.42
2022-08-20T00:53:23.293Z,36.42
2022-08-20T00:54:23.279Z,37.87
2022-08-20T00:55:23.267Z,36.42
2022-08-20T00:56:23.252Z,35.77
2022-08-20T00:57:23.260Z,37.06
2022-08-20T00:58:23.233Z,36.25
2022-08-20T00:59:23.229Z,35.61
2022-08-20T01:00:23.213Z,35.93
2022-08-20T01:01:23.257Z,37.54
2022-08-20T01:02:23.273Z,37.87
2022-08-20T01:03:23.186Z,37.38
2022-08-20T01:04:23.177Z,36.90
2022-08-20T01:05:23.169Z,36.74
2022-08-20T01:06:24.153Z,36.74
2022-08-20T01:07:23.154Z,35.13
2022-08-20T01:08:23.132Z,35.61
2022-08-20T01:09:49.533Z,36.58
2022-08-20T01:10:24.109Z,36.42
2022-08-20T01:11:23.105Z,35.13
2022-08-20T01:12:23.100Z,36.25
2022-08-20T01:13:23.083Z,36.42
2022-08-20T01:14:23.069Z,36.74
2022-08-20T01:15:23.064Z,37.87
2022-08-20T01:16:24.048Z,37.38
2022-08-20T01:17:23.054Z,37.71
2022-08-20T01:18:23.028Z,36.09
2022-08-20T01:19:29.242Z,36.09
2022-08-20T01:20:24.014Z,36.90
2022-08-20T01:21:23.005Z,36.90
2022-08-20T01:22:23.006Z,36.74
2022-08-20T01:23:22.985Z,36.74
2022-08-20T01:24:22.971Z,38.35
2022-08-20T01:25:23.928Z,38.67
2022-08-20T01:26:22.953Z,37.87
2022-08-20T01:27:22.960Z,37.87
2022-08-20T01:28:22.936Z,38.03
2022-08-20T01:29:22.926Z,38.51
2022-08-20T01:30:22.914Z,37.87
2022-08-20T01:31:22.908Z,37.54
2022-08-20T01:32:22.907Z,36.74
2022-08-20T01:33:22.889Z,36.42
2022-08-20T01:34:22.875Z,37.22
2022-08-20T01:35:22.868Z,37.54
2022-08-20T01:36:22.856Z,36.25
2022-08-20T01:37:22.860Z,36.42
2022-08-20T01:38:23.836Z,35.93
2022-08-20T01:39:22.837Z,36.42
2022-08-20T01:40:22.819Z,35.45
2022-08-20T01:41:28.626Z,35.13
2022-08-20T01:42:23.816Z,35.61
2022-08-20T01:43:22.789Z,36.25
2022-08-20T01:44:22.779Z,36.42
2022-08-20T01:45:26.868Z,36.58
2022-08-20T01:46:23.757Z,37.06
2022-08-20T01:47:22.761Z,37.54
2022-08-20T01:48:22.740Z,36.58
2022-08-20T01:49:23.519Z,37.22
2022-08-20T01:50:22.720Z,37.87
2022-08-20T01:51:22.711Z,37.38
2022-08-20T01:52:22.709Z,36.90
2022-08-20T01:53:22.691Z,37.54
2022-08-20T01:54:22.677Z,35.93
2022-08-20T01:55:22.669Z,37.06
2022-08-20T01:56:22.659Z,40.93
2022-08-20T01:57:22.663Z,37.38
2022-08-20T01:58:22.641Z,37.38
2022-08-20T01:59:22.634Z,37.71
2022-08-20T02:00:22.624Z,37.87
2022-08-20T02:01:22.636Z,38.03
2022-08-20T02:02:22.610Z,36.74
2022-08-20T02:03:22.601Z,37.38
2022-08-20T02:04:22.580Z,37.54
2022-08-20T02:05:22.576Z,36.90
2022-08-20T02:06:22.564Z,37.71
2022-08-20T02:07:22.571Z,38.19
2022-08-20T02:08:22.539Z,37.38
2022-08-20T02:09:22.532Z,36.58
2022-08-20T02:10:22.519Z,36.90
2022-08-20T02:11:22.523Z,36.58
2022-08-20T02:12:22.502Z,35.77
2022-08-20T02:13:22.503Z,36.42
2022-08-20T02:14:22.477Z,36.74
2022-08-20T02:15:34.934Z,36.90
2022-08-20T02:16:23.453Z,37.54
2022-08-20T02:17:22.451Z,38.83
2022-08-20T02:18:22.447Z,37.87
2022-08-20T02:19:22.433Z,36.09
2022-08-20T02:20:22.420Z,35.29
2022-08-20T02:21:22.410Z,36.25
2022-08-20T02:22:22.397Z,36.58
2022-08-20T02:23:22.400Z,36.74
2022-08-20T02:24:22.377Z,37.71
2022-08-20T02:25:23.153Z,37.38
2022-08-20T02:26:22.356Z,36.74
2022-08-20T02:27:22.380Z,38.83
2022-08-20T02:28:22.335Z,37.06
2022-08-20T02:29:22.334Z,36.58
2022-08-20T02:30:27.984Z,35.77
2022-08-20T02:31:23.311Z,36.58
2022-08-20T02:32:33.567Z,36.25
2022-08-20T02:33:24.603Z,35.29
2022-08-20T02:34:23.404Z,35.93
2022-08-20T02:35:23.389Z,35.61
2022-08-20T02:36:23.380Z,35.77
2022-08-20T02:37:23.370Z,37.38
2022-08-20T02:38:23.379Z,38.35
2022-08-20T02:39:23.354Z,38.03
2022-08-20T02:40:30.598Z,37.87
2022-08-20T02:41:24.334Z,38.51
2022-08-20T02:42:23.328Z,38.35
2022-08-20T02:43:23.321Z,38.35
2022-08-20T02:44:23.297Z,39.16
2022-08-20T02:45:23.286Z,39.16
2022-08-20T02:46:23.277Z,38.51
2022-08-20T02:47:23.284Z,38.35
2022-08-20T02:48:23.387Z,37.38
2022-08-20T02:49:23.253Z,37.71
2022-08-20T02:50:23.247Z,36.25
2022-08-20T02:51:30.507Z,36.58
2022-08-20T02:52:24.238Z,37.54
2022-08-20T02:53:23.215Z,40.12
2022-08-20T02:54:23.197Z,41.73
2022-08-20T02:55:25.989Z,39.64
2022-08-20T02:56:24.193Z,39.32
2022-08-20T02:57:23.179Z,39.80
2022-08-20T02:58:23.168Z,41.25
2022-08-20T02:59:23.159Z,43.34
2022-08-20T03:00:23.145Z,39.48
2022-08-20T03:01:23.157Z,40.28
2022-08-20T03:02:23.128Z,41.41
2022-08-20T03:03:23.122Z,41.25
2022-08-20T03:04:23.097Z,41.25
2022-08-20T03:05:23.093Z,39.64
2022-08-20T03:06:23.088Z,38.67
2022-08-20T03:07:23.070Z,41.41
2022-08-20T03:08:23.066Z,40.93
2022-08-20T03:09:23.050Z,41.41
2022-08-20T03:10:23.052Z,39.80
2022-08-20T03:11:23.031Z,40.44
2022-08-20T03:12:23.024Z,40.12
2022-08-20T03:13:23.028Z,40.12
2022-08-20T03:14:23.007Z,39.64
2022-08-20T03:15:23.004Z,38.51
2022-08-20T03:16:22.984Z,38.67
2022-08-20T03:17:22.983Z,41.25
2022-08-20T03:18:22.974Z,39.96
2022-08-20T03:19:22.949Z,38.19
2022-08-20T03:20:23.815Z,38.19
2022-08-20T03:21:22.935Z,40.12
2022-08-20T03:22:22.918Z,40.77
2022-08-20T03:23:22.914Z,40.93
2022-08-20T03:24:23.906Z,44.15
2022-08-20T03:25:22.894Z,42.86
2022-08-20T03:26:22.881Z,39.16
2022-08-20T03:27:22.877Z,37.38
2022-08-20T03:28:22.882Z,38.99
2022-08-20T03:29:22.879Z,39.16
2022-08-20T03:30:22.849Z,38.51
2022-08-20T03:31:22.828Z,38.99
2022-08-20T03:32:22.823Z,40.12
2022-08-20T03:33:22.825Z,38.83
2022-08-20T03:34:22.796Z,41.89
2022-08-20T03:35:22.795Z,37.87
2022-08-20T03:36:27.839Z,38.03
2022-08-20T03:37:23.765Z,38.99
2022-08-20T03:38:32.984Z,39.96
2022-08-20T03:39:23.777Z,37.87
2022-08-20T03:40:22.735Z,39.48
2022-08-20T03:41:22.733Z,38.19
2022-08-20T03:42:22.740Z,38.35
2022-08-20T03:43:22.718Z,36.42
2022-08-20T03:44:22.701Z,38.35
2022-08-20T03:45:22.699Z,37.22
2022-08-20T03:46:23.632Z,37.87
2022-08-20T03:47:22.675Z,39.96
2022-08-20T03:48:22.671Z,38.83
2022-08-20T03:49:22.656Z,37.38
2022-08-20T03:50:22.906Z,38.83
2022-08-20T03:51:22.631Z,39.96
2022-08-20T03:52:22.620Z,37.38
2022-08-20T03:53:22.649Z,40.28
2022-08-20T03:54:22.599Z,40.93
2022-08-20T03:55:22.600Z,40.61
2022-08-20T03:56:22.579Z,39.16
2022-08-20T03:57:22.577Z,39.48
2022-08-20T03:58:29.983Z,38.67
2022-08-20T03:59:23.549Z,41.09
2022-08-20T04:00:22.538Z,41.25
2022-08-20T04:01:44.655Z,39.96
2022-08-20T04:02:23.531Z,38.83
2022-08-20T04:03:22.526Z,38.99
2022-08-20T04:04:22.496Z,41.09
2022-08-20T04:05:22.493Z,43.18
2022-08-20T04:06:22.476Z,42.70
2022-08-20T04:07:22.482Z,38.83
2022-08-20T04:08:22.470Z,40.61
2022-08-20T04:09:22.449Z,41.41
2022-08-20T04:10:22.442Z,41.41
2022-08-20T04:11:22.446Z,41.25
2022-08-20T04:12:22.425Z,41.57
2022-08-20T04:13:22.758Z,42.54
2022-08-20T04:14:22.392Z,41.41
2022-08-20T04:15:22.386Z,41.41
2022-08-20T04:16:22.386Z,41.73
2022-08-20T04:17:22.574Z,40.61
2022-08-20T04:18:22.365Z,41.73
2022-08-20T04:19:22.353Z,42.22
2022-08-20T04:20:22.349Z,43.51
2022-08-20T04:21:22.327Z,42.22
2022-08-20T04:22:22.317Z,39.64
2022-08-20T04:23:22.324Z,40.61
2022-08-20T04:24:31.719Z,40.28
2022-08-20T04:25:24.027Z,40.77
2022-08-20T04:26:22.276Z,41.09
2022-08-20T04:27:22.265Z,42.06
2022-08-20T04:28:22.272Z,40.61
2022-08-20T04:29:22.248Z,43.99
2022-08-20T04:30:22.235Z,43.67
2022-08-20T04:31:25.052Z,42.54
2022-08-20T04:32:23.220Z,41.89
2022-08-20T04:33:33.571Z,39.80
2022-08-20T04:34:23.195Z,40.44
2022-08-20T04:35:22.187Z,42.38
2022-08-20T04:36:22.174Z,42.70
2022-08-20T04:37:22.166Z,43.51
2022-08-20T04:38:22.164Z,41.09
2022-08-20T04:39:22.143Z,42.70
2022-08-20T04:40:22.128Z,40.61
2022-08-20T04:41:23.548Z,39.32
2022-08-20T04:42:22.101Z,41.89
2022-08-20T04:43:23.131Z,42.38
2022-08-20T04:44:22.086Z,41.09
2022-08-20T04:45:22.085Z,42.54
2022-08-20T04:46:22.066Z,41.09
2022-08-20T04:47:23.925Z,40.77
2022-08-20T04:48:23.059Z,40.77
2022-08-20T04:49:22.045Z,42.22
2022-08-20T04:50:22.029Z,43.18
2022-08-20T04:51:23.150Z,41.89
2022-08-20T04:52:22.009Z,41.57
2022-08-20T04:53:25.781Z,42.38
2022-08-20T04:54:22.987Z,41.89
2022-08-20T04:55:21.976Z,43.67
2022-08-20T04:56:21.969Z,46.25
2022-08-20T04:57:21.964Z,42.86
2022-08-20T04:58:21.956Z,42.86
2022-08-20T04:59:21.938Z,43.51
2022-08-20T05:00:21.926Z,41.73
2022-08-20T05:01:22.094Z,42.86
2022-08-20T05:02:21.902Z,43.18
2022-08-20T05:03:21.903Z,42.70
2022-08-20T05:04:21.885Z,43.51
2022-08-20T05:05:21.877Z,40.44
2022-08-20T05:06:21.867Z,40.93
2022-08-20T05:07:21.860Z,43.34
2022-08-20T05:08:21.853Z,42.22
2022-08-20T05:09:21.846Z,41.41
2022-08-20T05:10:21.823Z,43.18
2022-08-20T05:11:33.914Z,42.70
2022-08-20T05:12:22.812Z,40.77
2022-08-20T05:13:26.697Z,41.41
2022-08-20T05:14:23.785Z,41.09
2022-08-20T05:15:21.777Z,40.61
2022-08-20T05:16:21.769Z,42.06
2022-08-20T05:17:21.757Z,41.41
2022-08-20T05:18:21.760Z,41.25
2022-08-20T05:19:21.732Z,39.96
2022-08-20T05:20:21.728Z,40.28
2022-08-20T05:21:21.725Z,41.41
2022-08-20T05:22:21.702Z,41.57
2022-08-20T05:23:21.701Z,40.44
2022-08-20T05:24:21.682Z,41.25
2022-08-20T05:25:21.672Z,43.02
2022-08-20T05:26:21.656Z,41.73
2022-08-20T05:27:24.791Z,40.61
2022-08-20T05:28:21.663Z,40.61
2022-08-20T05:29:21.624Z,41.25
2022-08-20T05:30:21.619Z,41.09
2022-08-20T05:31:21.612Z,39.80
2022-08-20T05:32:21.605Z,41.09
2022-08-20T05:33:21.597Z,42.70
2022-08-20T05:34:21.578Z,42.22
2022-08-20T05:35:21.581Z,43.02
2022-08-20T05:36:21.555Z,42.54
2022-08-20T05:37:21.541Z,41.89
2022-08-20T05:38:21.547Z,41.89
2022-08-20T05:39:21.522Z,40.61
2022-08-20T05:40:21.567Z,40.12
2022-08-20T05:41:28.524Z,41.41
2022-08-20T05:42:22.501Z,43.99
2022-08-20T05:43:21.510Z,39.80
2022-08-20T05:44:21.484Z,39.48
2022-08-20T05:45:21.467Z,39.80
2022-08-20T05:46:21.462Z,40.44
2022-08-20T05:47:21.459Z,41.57
2022-08-20T05:48:21.452Z,43.02
2022-08-20T05:49:21.425Z,40.93
2022-08-20T05:50:23.535Z,43.18
2022-08-20T05:51:21.412Z,42.54
2022-08-20T05:52:21.395Z,40.28
2022-08-20T05:53:21.400Z,41.41
2022-08-20T05:54:21.381Z,41.25
2022-08-20T05:55:21.359Z,39.96
2022-08-20T05:56:26.646Z,40.12
2022-08-20T05:57:22.344Z,42.70
2022-08-20T05:58:21.347Z,40.61
2022-08-20T05:59:23.993Z,40.93
2022-08-20T06:00:22.317Z,40.93
2022-08-20T06:01:21.368Z,38.83
2022-08-20T06:02:21.297Z,39.16
2022-08-20T06:03:21.302Z,39.48
2022-08-20T06:04:21.274Z,39.96
2022-08-20T06:05:21.268Z,39.64
2022-08-20T06:06:45.250Z,39.96
2022-08-20T06:07:22.247Z,43.67
2022-08-20T06:08:21.256Z,38.67
2022-08-20T06:09:30.767Z,40.77
2022-08-20T06:10:22.214Z,42.38
2022-08-20T06:11:21.210Z,41.73
2022-08-20T06:12:21.195Z,39.32
2022-08-20T06:13:21.195Z,38.51
2022-08-20T06:14:21.172Z,41.73
2022-08-20T06:15:21.170Z,39.48
2022-08-20T06:16:21.157Z,42.70
2022-08-20T06:17:22.351Z,43.51
2022-08-20T06:18:28.420Z,42.06
2022-08-20T06:19:25.083Z,41.09
2022-08-20T06:20:21.105Z,43.02
2022-08-20T06:21:22.114Z,43.51
2022-08-20T06:22:24.144Z,42.06
2022-08-20T06:23:22.080Z,40.77
2022-08-20T06:24:21.090Z,38.67
2022-08-20T06:25:21.068Z,40.44
2022-08-20T06:26:28.951Z,40.61
2022-08-20T06:27:22.043Z,39.96
2022-08-20T06:28:21.039Z,38.51
2022-08-20T06:29:21.041Z,38.03
2022-08-20T06:30:21.010Z,40.44
2022-08-20T06:31:21.014Z,39.32
2022-08-20T06:32:29.774Z,41.41
2022-08-20T06:33:21.986Z,43.18
2022-08-20T06:34:21.008Z,42.54
2022-08-20T06:35:20.974Z,38.83
2022-08-20T06:36:20.955Z,39.96
2022-08-20T06:37:20.952Z,40.93
2022-08-20T06:38:20.941Z,39.64
2022-08-20T06:39:20.939Z,42.06
2022-08-20T06:40:21.007Z,40.93
2022-08-20T06:41:20.915Z,39.96
2022-08-20T06:42:21.155Z,42.22
2022-08-20T06:43:20.897Z,40.44
2022-08-20T06:44:20.900Z,40.93
2022-08-20T06:45:20.886Z,38.35
2022-08-20T06:46:20.888Z,40.93
2022-08-20T06:47:20.873Z,41.09
2022-08-20T06:48:20.848Z,42.22
2022-08-20T06:49:20.855Z,41.25
2022-08-20T06:50:20.833Z,42.06
2022-08-20T06:51:20.825Z,43.02
2022-08-20T06:52:20.805Z,41.09
2022-08-20T06:53:21.792Z,40.44
2022-08-20T06:54:20.792Z,41.09
2022-08-20T06:55:21.787Z,39.96
2022-08-20T06:56:20.763Z,41.89
2022-08-20T06:57:20.758Z,41.25
2022-08-20T06:58:36.760Z,39.64
2022-08-20T06:59:21.746Z,40.28
2022-08-20T07:00:20.765Z,42.22
2022-08-20T07:01:20.763Z,41.89
2022-08-20T07:02:20.710Z,47.05
2022-08-20T07:03:21.708Z,40.28
2022-08-20T07:04:20.698Z,42.70
2022-08-20T07:05:20.682Z,41.73
2022-08-20T07:06:20.671Z,39.48
2022-08-20T07:07:20.658Z,40.28
2022-08-20T07:08:20.686Z,39.96
2022-08-20T07:09:20.692Z,40.61
2022-08-20T07:10:20.638Z,41.57
2022-08-20T07:11:24.945Z,40.12
2022-08-20T07:12:22.607Z,40.93
2022-08-20T07:13:20.595Z,38.99
2022-08-20T07:14:20.592Z,42.06
2022-08-20T07:15:20.573Z,39.16
2022-08-20T07:16:20.571Z,38.67
2022-08-20T07:17:20.995Z,40.12
2022-08-20T07:18:28.399Z,41.89
2022-08-20T07:19:21.584Z,39.48
2022-08-20T07:20:21.541Z,38.83
2022-08-20T07:21:20.528Z,39.32
2022-08-20T07:22:20.505Z,41.25
2022-08-20T07:23:20.522Z,47.05
2022-08-20T07:24:20.503Z,41.73
2022-08-20T07:25:20.481Z,41.41
2022-08-20T07:26:20.480Z,45.44
2022-08-20T07:27:20.470Z,48.02
2022-08-20T07:28:20.445Z,53.33
2022-08-20T07:29:21.684Z,63.33
2022-08-20T07:30:20.475Z,63.16
2022-08-20T07:31:20.544Z,63.16
2022-08-20T07:32:21.908Z,63.16
2022-08-20T07:33:21.398Z,59.30
2022-08-20T07:34:20.395Z,57.04
2022-08-20T07:35:20.388Z,49.79
2022-08-20T07:36:20.394Z,49.31
2022-08-20T07:37:20.352Z,52.21
2022-08-20T07:38:20.447Z,60.91
2022-08-20T07:39:20.511Z,59.94
2022-08-20T07:40:23.842Z,59.78
2022-08-20T07:41:22.364Z,59.94
2022-08-20T07:42:20.341Z,58.49
2022-08-20T07:43:20.318Z,56.40
2022-08-20T07:44:20.324Z,55.59
2022-08-20T07:45:20.318Z,57.85
2022-08-20T07:46:20.742Z,61.07
2022-08-20T07:47:20.413Z,65.74
2022-08-20T07:48:28.043Z,67.03
2022-08-20T07:49:21.359Z,69.77
2022-08-20T07:50:20.308Z,69.29
2022-08-20T07:51:20.276Z,71.22
2022-08-20T07:52:20.362Z,58.33
2022-08-20T07:53:20.263Z,56.56
2022-08-20T07:54:20.314Z,65.26
2022-08-20T07:55:20.210Z,64.61
2022-08-20T07:56:20.252Z,66.23
2022-08-20T07:57:20.253Z,63.16
2022-08-20T07:58:21.110Z,63.16
2022-08-20T07:59:21.205Z,62.20
2022-08-20T08:00:20.167Z,64.13
2022-08-20T08:01:20.277Z,60.59
2022-08-20T08:02:20.152Z,66.87
2022-08-20T08:03:20.137Z,66.39
2022-08-20T08:04:21.145Z,62.36
2022-08-20T08:05:20.124Z,64.29
2022-08-20T08:06:29.347Z,63.16
2022-08-20T08:07:21.094Z,66.39
2022-08-20T08:08:20.126Z,64.61
2022-08-20T08:09:20.112Z,59.30
2022-08-20T08:10:20.070Z,58.49
2022-08-20T08:11:20.110Z,61.39
2022-08-20T08:12:20.062Z,49.95
2022-08-20T08:13:20.059Z,49.31
2022-08-20T08:14:20.047Z,48.18
2022-08-20T08:15:20.050Z,46.25
2022-08-20T08:16:54.029Z,44.79
2022-08-20T08:17:54.086Z,48.98
2022-08-20T08:18:54.093Z,44.79
2022-08-20T08:19:53.661Z,47.37
2022-08-20T08:20:19.969Z,44.79
2022-08-20T08:21:54.191Z,43.51
2022-08-20T08:22:54.226Z,46.73
2022-08-20T08:23:52.773Z,45.76
2022-08-20T08:24:57.218Z,46.89
2022-08-20T08:25:53.853Z,40.28
2022-08-20T08:26:53.855Z,44.96
2022-08-20T08:27:19.965Z,44.31
2022-08-20T08:28:19.865Z,42.22
2022-08-20T08:29:19.890Z,43.83
2022-08-20T08:30:19.963Z,41.41
2022-08-20T08:31:19.894Z,41.89
2022-08-20T08:32:19.890Z,49.47
2022-08-20T08:33:19.882Z,45.44
2022-08-20T08:34:19.845Z,44.47
2022-08-20T08:35:20.875Z,40.28
2022-08-20T08:36:19.913Z,41.41
2022-08-20T08:37:19.820Z,40.44
2022-08-20T08:38:19.858Z,39.32
2022-08-20T08:39:19.826Z,39.32
2022-08-20T08:40:19.947Z,40.77
2022-08-20T08:41:19.769Z,41.25
2022-08-20T08:42:19.758Z,40.28
2022-08-20T08:43:21.238Z,39.80
2022-08-20T08:44:19.780Z,42.70
2022-08-20T08:45:19.830Z,42.06
2022-08-20T08:46:19.735Z,45.44
2022-08-20T08:47:19.733Z,39.80
2022-08-20T08:48:19.700Z,39.96
2022-08-20T08:49:19.722Z,39.80
2022-08-20T08:50:33.340Z,45.12
2022-08-20T08:51:21.692Z,41.41
2022-08-20T08:52:19.721Z,39.96
2022-08-20T08:53:53.923Z,41.57
2022-08-20T08:54:20.216Z,39.16
2022-08-20T08:55:19.845Z,39.48
2022-08-20T08:56:19.758Z,40.93
2022-08-20T08:57:19.752Z,38.35
2022-08-20T08:58:19.697Z,39.64
2022-08-20T08:59:19.693Z,40.93
2022-08-20T09:00:19.755Z,42.22
2022-08-20T09:01:54.504Z,41.89
2022-08-20T09:02:20.689Z,39.32
2022-08-20T09:03:20.673Z,39.80
2022-08-20T09:04:21.742Z,38.67
2022-08-20T09:05:19.617Z,37.38
2022-08-20T09:06:19.572Z,40.28
2022-08-20T09:07:19.621Z,38.51
2022-08-20T09:08:19.632Z,37.22
2022-08-20T09:09:20.569Z,37.38
2022-08-20T09:10:23.218Z,37.38
2022-08-20T09:11:32.528Z,37.54
2022-08-20T09:12:19.710Z,43.51
2022-08-20T09:13:19.533Z,38.67
2022-08-20T09:14:19.638Z,38.99
2022-08-20T09:15:26.517Z,36.90
2022-08-20T09:16:20.514Z,36.58
2022-08-20T09:17:19.465Z,36.42
2022-08-20T09:18:19.583Z,35.45
2022-08-20T09:19:22.054Z,36.42
2022-08-20T09:20:19.647Z,36.09
2022-08-20T09:21:19.396Z,35.61
2022-08-20T09:22:19.410Z,38.19
2022-08-20T09:23:19.495Z,36.42
2022-08-20T09:24:19.449Z,36.25
2022-08-20T09:25:19.498Z,38.35
2022-08-20T09:26:19.396Z,37.22
2022-08-20T09:27:19.497Z,37.06
2022-08-20T09:28:19.326Z,41.89
2022-08-20T09:29:20.704Z,36.25
2022-08-20T09:30:19.310Z,37.71
2022-08-20T09:31:19.260Z,36.90
2022-08-20T09:32:19.277Z,36.42
2022-08-20T09:33:19.317Z,37.54
2022-08-20T09:34:19.235Z,39.32
2022-08-20T09:35:19.296Z,37.38
2022-08-20T09:36:29.110Z,36.25
2022-08-20T09:37:20.234Z,36.25
2022-08-20T09:38:19.213Z,37.38
2022-08-20T09:39:19.316Z,36.42
2022-08-20T09:40:21.281Z,35.45
2022-08-20T09:41:19.202Z,38.67
2022-08-20T09:42:19.206Z,37.06
2022-08-20T09:43:19.187Z,36.58
2022-08-20T09:44:19.172Z,37.22
2022-08-20T09:45:19.157Z,40.77
2022-08-20T09:46:19.161Z,37.71
2022-08-20T09:47:19.137Z,36.74
2022-08-20T09:48:19.101Z,36.74
2022-08-20T09:49:19.103Z,34.64
2022-08-20T09:50:19.130Z,35.45
2022-08-20T09:51:19.097Z,38.19
2022-08-20T09:52:19.092Z,38.67
2022-08-20T09:53:19.056Z,37.71
2022-08-20T09:54:19.075Z,38.51
2022-08-20T09:55:19.140Z,36.90
2022-08-20T09:56:19.075Z,36.74
2022-08-20T09:57:19.020Z,37.22
2022-08-20T09:58:19.005Z,36.74
2022-08-20T09:59:19.011Z,36.74
2022-08-20T10:00:20.016Z,37.71
2022-08-20T10:01:19.088Z,42.22
2022-08-20T10:02:18.988Z,39.16
2022-08-20T10:03:18.945Z,38.67
2022-08-20T10:04:18.946Z,42.54
2022-08-20T10:05:18.986Z,38.19
2022-08-20T10:06:18.955Z,37.38
2022-08-20T10:07:18.937Z,37.22
2022-08-20T10:08:19.052Z,36.09
2022-08-20T10:09:18.918Z,36.42
2022-08-20T10:10:18.893Z,37.87
2022-08-20T10:11:18.850Z,36.90
2022-08-20T10:12:18.876Z,36.09
2022-08-20T10:13:18.910Z,35.93
2022-08-20T10:14:18.850Z,36.90
2022-08-20T10:15:18.860Z,34.97
2022-08-20T10:16:18.877Z,35.13
2022-08-20T10:17:18.829Z,38.51
2022-08-20T10:18:18.811Z,36.58
2022-08-20T10:19:18.773Z,38.51
2022-08-20T10:20:18.772Z,36.25
2022-08-20T10:27:13.563Z,36.09
2022-08-20T10:38:56.893Z,34.32
2022-08-20T10:45:24.533Z,35.45
2022-08-20T10:46:24.350Z,33.35
2022-08-20T10:47:31.565Z,34.00
2022-08-20T10:49:09.804Z,38.51
2022-08-20T10:49:23.980Z,32.55
2022-08-20T10:50:24.000Z,34.16
2022-08-20T10:51:32.206Z,34.00
2022-08-20T10:52:24.998Z,36.25
2022-08-20T10:53:23.943Z,34.16
2022-08-20T10:54:23.938Z,33.68
2022-08-20T10:55:27.717Z,37.71
2022-08-20T11:17:57.880Z,36.42
2022-08-20T11:18:57.801Z,33.84
2022-08-20T11:20:01.598Z,37.38
2022-08-20T11:27:38.123Z,34.64
2022-08-20T11:28:38.195Z,34.32
2022-08-20T11:35:40.570Z,34.97
2022-08-20T11:36:10.907Z,31.74
2022-08-20T11:37:09.785Z,32.87
2022-08-20T11:38:09.756Z,33.52
2022-08-20T11:39:30.759Z,34.48
2022-08-20T11:40:09.777Z,34.64
2022-08-20T11:41:09.731Z,32.39
2022-08-20T11:42:09.726Z,32.07
2022-08-20T11:43:17.956Z,32.23
2022-08-20T11:44:21.000Z,31.58
2022-08-20T11:45:10.713Z,32.39
2022-08-20T11:46:09.721Z,32.23
2022-08-20T11:47:09.658Z,32.87
2022-08-20T11:48:09.707Z,32.07
2022-08-20T11:49:09.640Z,33.03
2022-08-20T11:50:09.722Z,33.68
2022-08-20T11:51:09.643Z,31.42
2022-08-20T11:52:10.319Z,33.19
2022-08-20T11:53:09.750Z,32.71
2022-08-20T11:54:09.596Z,31.42
2022-08-20T11:55:09.606Z,31.42
2022-08-20T11:56:09.654Z,36.58
2022-08-20T11:57:09.587Z,31.74
2022-08-20T11:58:09.560Z,31.58
2022-08-20T11:59:09.554Z,32.23
2022-08-20T12:00:09.606Z,35.45
2022-08-20T12:01:09.545Z,34.97
2022-08-20T12:02:12.539Z,32.23
2022-08-20T12:03:10.232Z,35.77
2022-08-20T12:04:09.539Z,35.13
2022-08-20T12:05:09.486Z,32.39
2022-08-20T12:06:09.493Z,32.39
2022-08-20T12:07:09.469Z,33.35
2022-08-20T12:08:09.473Z,34.00
2022-08-20T12:09:09.446Z,32.55
2022-08-20T12:10:09.445Z,31.58
2022-08-20T12:11:09.448Z,32.55
2022-08-20T12:12:09.423Z,33.03
2022-08-20T12:13:09.465Z,34.64
2022-08-20T12:14:09.414Z,32.71
2022-08-20T12:15:09.396Z,32.39
2022-08-20T12:16:09.404Z,32.23
2022-08-20T12:17:09.372Z,33.52
2022-08-20T12:18:09.369Z,32.23
2022-08-20T12:19:09.354Z,31.74
2022-08-20T12:20:09.389Z,31.74
2022-08-20T12:21:09.346Z,32.39
2022-08-20T12:22:20.437Z,34.32
2022-08-20T12:23:10.323Z,31.42
2022-08-20T12:24:09.331Z,31.90
2022-08-20T12:25:09.327Z,33.03
2022-08-20T12:26:09.293Z,33.84
2022-08-20T12:27:09.283Z,31.26
2022-08-20T12:28:09.288Z,34.16
2022-08-20T12:29:09.264Z,33.68
2022-08-20T12:30:09.274Z,32.55
2022-08-20T12:31:09.326Z,32.07
2022-08-20T12:32:09.235Z,32.39
2022-08-20T12:33:09.225Z,33.84
2022-08-20T12:34:09.219Z,33.03
2022-08-20T12:35:09.220Z,34.97
2022-08-20T12:36:09.198Z,35.45
2022-08-20T12:37:12.814Z,38.51
2022-08-20T12:38:10.187Z,40.28
2022-08-20T12:39:09.179Z,38.35
2022-08-20T12:40:09.390Z,40.93
2022-08-20T12:41:09.146Z,40.28
2022-08-20T12:42:09.141Z,39.64
2022-08-20T12:43:09.140Z,37.06
2022-08-20T12:44:13.373Z,36.42
2022-08-20T12:45:10.837Z,37.06
2022-08-20T12:46:09.114Z,38.03
2022-08-20T12:48:18.425Z,35.93
2022-08-20T12:49:09.897Z,37.54
2022-08-20T12:50:09.081Z,36.09
2022-08-20T12:51:09.054Z,36.42
2022-08-20T12:52:09.057Z,39.32
2022-08-20T12:53:09.035Z,40.77
2022-08-20T12:54:09.034Z,40.93
2022-08-20T12:55:09.097Z,41.73
2022-08-20T12:56:09.059Z,37.87
2022-08-20T12:57:09.056Z,41.41
2022-08-20T12:58:08.989Z,42.38
2022-08-20T12:59:08.972Z,39.80
2022-08-20T13:00:08.989Z,43.83
2022-08-20T13:01:08.990Z,43.83
2022-08-20T13:02:18.460Z,42.70
2022-08-20T13:03:09.933Z,40.77
2022-08-20T13:04:10.116Z,38.51
2022-08-20T13:05:10.123Z,39.16
2022-08-20T13:06:10.104Z,38.03
2022-08-20T13:07:11.549Z,37.87
2022-08-20T13:08:10.399Z,38.35
2022-08-20T13:09:10.098Z,37.71
2022-08-20T13:10:10.067Z,37.06
2022-08-20T13:11:10.085Z,37.38
2022-08-20T13:12:10.151Z,37.22
2022-08-20T13:13:10.141Z,36.90
2022-08-20T13:14:10.138Z,36.09
2022-08-20T13:15:10.182Z,36.25
2022-08-20T13:16:10.055Z,35.29
2022-08-20T13:17:10.246Z,35.93
2022-08-20T13:18:09.982Z,35.45
2022-08-20T13:19:09.977Z,36.25
2022-08-20T13:20:10.151Z,38.83
2022-08-20T17:04:06.995Z,30.78
2022-08-20T17:05:08.609Z,31.26
2022-08-20T17:06:08.311Z,30.78
2022-08-20T17:07:11.801Z,32.39
2022-08-20T17:08:09.305Z,31.58
2022-08-20T17:09:08.643Z,34.48
2022-08-20T17:10:28.812Z,32.07
2022-08-20T17:15:47.042Z,32.71
2022-08-20T17:16:48.605Z,30.94
2022-08-20T17:17:48.851Z,30.94
2022-08-20T17:18:49.880Z,33.68
2022-08-20T17:19:56.632Z,32.23
2022-08-20T17:20:47.057Z,32.23
2022-08-20T17:22:10.008Z,33.84
2022-08-20T17:22:50.464Z,39.16
2022-08-20T17:24:36.382Z,33.84
2022-08-20T17:25:28.811Z,33.84
2022-08-20T17:27:04.376Z,35.45
2022-08-20T17:29:11.581Z,37.54
2022-08-20T17:29:59.865Z,32.39
2022-08-20T17:33:36.143Z,34.97
2022-08-20T17:34:35.086Z,32.39
2022-08-20T17:35:34.362Z,34.80
2022-08-20T17:36:36.833Z,32.07
2022-08-20T17:37:33.606Z,32.87
2022-08-20T17:38:44.296Z,34.16
2022-08-20T17:40:39.901Z,32.39
2022-08-20T17:41:31.774Z,32.71
2022-08-20T17:42:35.183Z,31.58
2022-08-20T17:43:32.321Z,32.07
2022-08-20T17:44:34.255Z,40.77